createdAt,value
2022-10-17T00:07:23.487Z,78.4
2022-10-17T00:22:33.740Z,78.6
2022-10-17T00:37:42.958Z,78.7
2022-10-17T00:52:52.083Z,78.8
2022-10-17T01:08:01.272Z,79.1
2022-10-17T01:23:10.992Z,79.2
2022-10-17T01:38:22.595Z,79.5
2022-10-17T01:53:32.189Z,79.8
2022-10-17T02:08:41.820Z,79.9
2022-10-17T02:23:51.482Z,80
2022-10-17T02:39:01.352Z,80.2
2022-10-17T02:54:10.109Z,80.3
2022-10-17T03:09:19.704Z,80.3
2022-10-17T03:24:29.196Z,80.9
2022-10-17T03:39:38.792Z,80.6
2022-10-17T03:54:48.441Z,80.4
2022-10-17T04:09:57.883Z,81.2
2022-10-17T04:25:08.260Z,80.8
2022-10-17T04:40:17.581Z,81.1
2022-10-17T04:55:26.782Z,81.2
2022-10-17T05:10:36.116Z,81.4
2022-10-17T05:25:45.291Z,81.5
2022-10-17T05:40:54.755Z,81.8
2022-10-17T05:56:04.721Z,81.6
2022-10-17T06:11:14.016Z,81.7
2022-10-17T06:26:23.902Z,81.7
2022-10-17T06:41:33.376Z,81.7
2022-10-17T06:56:42.993Z,81.7
2022-10-17T07:11:52.528Z,81.7
2022-10-17T07:27:02.347Z,81.6
2022-10-17T07:42:12.132Z,81.3
2022-10-17T07:57:23.605Z,81.2
2022-10-17T08:12:33.655Z,81
2022-10-17T08:27:43.248Z,80.8
2022-10-17T08:42:53.163Z,80.1
2022-10-17T08:58:03.317Z,80
2022-10-17T09:13:13.208Z,80
2022-10-17T09:28:25.073Z,79
2022-10-17T09:43:34.941Z,79.8
2022-10-17T09:58:45.046Z,79.6
2022-10-17T10:13:55.701Z,79.2
2022-10-17T10:29:06.277Z,78.9
2022-10-17T10:44:16.374Z,78.9
2022-10-17T10:59:26.230Z,79.1
2022-10-17T11:14:35.734Z,79.2
2022-10-17T11:29:44.883Z,79
2022-10-17T11:44:54.784Z,78.6
2022-10-17T12:00:04.660Z,78
2022-10-17T12:15:14.797Z,77.3
2022-10-17T12:30:24.566Z,77
2022-10-17T12:45:34.407Z,76.9
2022-10-17T13:01:25.208Z,76.9
2022-10-17T13:16:35.636Z,77.2
2022-10-17T13:31:46.376Z,77.1
2022-10-17T13:46:55.561Z,77.2
2022-10-17T14:02:04.872Z,77.2
2022-10-17T14:17:14.213Z,77.3
2022-10-17T14:32:24.795Z,77.3
2022-10-17T14:47:51.636Z,77.5
2022-10-17T15:03:01.889Z,77.8
2022-10-17T15:18:11.075Z,77
2022-10-17T15:33:20.401Z,78.3
2022-10-17T15:48:30.819Z,78.5
2022-10-17T16:03:39.745Z,78.7
2022-10-17T16:18:49.425Z,78.9
2022-10-17T16:33:59.301Z,79.1
2022-10-17T16:49:08.470Z,79.3
2022-10-17T17:04:17.957Z,79.5
2022-10-17T17:19:27.099Z,79.5
2022-10-17T17:34:36.575Z,79.6
2022-10-17T17:49:46.278Z,79.9
2022-10-17T18:04:55.615Z,80.2
2022-10-17T18:20:04.624Z,80.1
2022-10-17T18:35:14.196Z,80.7
2022-10-17T18:50:24.188Z,81
2022-10-17T19:05:33.518Z,81.2
2022-10-17T19:20:42.865Z,81.4
2022-10-17T19:35:51.999Z,81.7
2022-10-17T19:51:01.167Z,81.9
2022-10-17T20:06:10.414Z,82.1
2022-10-17T20:21:20.036Z,82.2
2022-10-17T20:36:29.806Z,82.4
2022-10-17T20:51:39.638Z,82.6
2022-10-17T21:06:49.058Z,82.7
2022-10-17T21:21:58.247Z,82.9
2022-10-17T21:37:07.617Z,83.1
2022-10-17T21:52:17.322Z,83.2
2022-10-17T22:07:26.853Z,83.3
2022-10-17T22:22:35.966Z,83.4
2022-10-17T22:37:45.647Z,83.6
2022-10-17T22:52:55.262Z,83.8
2022-10-17T23:08:05.468Z,84.1
2022-10-17T23:23:15.532Z,84.3
2022-10-17T23:38:25.144Z,84.4
2022-10-17T23:53:34.811Z,84.5
